createdAt,value
2014-10-07T00:00:19.643Z,13.44
2014-10-07T00:01:24.348Z,13.75
2014-10-07T00:02:29.350Z,13.44
2014-10-07T00:03:34.040Z,13.24
2014-10-07T00:04:38.745Z,12.8
2014-10-07T00:05:43.731Z,12.86
2014-10-07T00:06:48.436Z,13.06
2014-10-07T00:07:53.126Z,13.36
2014-10-07T00:08:58.112Z,13.55
2014-10-07T00:10:02.817Z,13.18
2014-10-07T00:11:07.508Z,12.85
2014-10-07T00:12:12.212Z,12.7
2014-10-07T00:13:16.901Z,12.9
2014-10-07T00:14:21.889Z,12.87
2014-10-07T00:15:26.577Z,12.88
2014-10-07T00:16:31.283Z,12.83
2014-10-07T00:17:35.973Z,12.74
2014-10-07T00:18:40.662Z,12.9
2014-10-07T00:19:45.368Z,12.78
2014-10-07T00:20:50.058Z,12.64
2014-10-07T00:21:55.043Z,12.66
2014-10-07T00:23:00.030Z,12.71
2014-10-07T00:24:05.016Z,12.66
2014-10-07T00:25:10.003Z,12.72
2014-10-07T00:26:14.990Z,12.72
2014-10-07T00:27:19.975Z,12.72
2014-10-07T00:28:24.681Z,12.74
2014-10-07T00:29:29.371Z,12.66
2014-10-07T00:30:34.076Z,12.65
2014-10-07T00:31:39.062Z,12.61
2014-10-07T00:32:43.768Z,12.66
2014-10-07T00:33:48.457Z,12.6
2014-10-07T00:34:53.443Z,12.6
2014-10-07T00:35:58.149Z,12.67
2014-10-07T00:37:02.839Z,12.88
2014-10-07T00:38:07.543Z,13.18
2014-10-07T00:39:12.234Z,13.22
2014-10-07T00:40:16.922Z,12.91
2014-10-07T00:41:21.613Z,12.89
2014-10-07T00:42:26.318Z,12.78
2014-10-07T00:43:31.006Z,13.1
2014-10-07T00:44:35.994Z,12.98
2014-10-07T00:45:40.682Z,12.84
2014-10-07T00:46:45.670Z,12.85
2014-10-07T00:47:50.656Z,12.84
2014-10-07T00:48:55.642Z,12.86
2014-10-07T00:50:00.644Z,12.72
2014-10-07T00:51:04.646Z,12.68
2014-10-07T00:52:09.336Z,12.59
2014-10-07T00:53:14.025Z,12.66
2014-10-07T00:54:18.716Z,12.66
2014-10-07T00:55:23.420Z,12.69
2014-10-07T00:56:28.126Z,12.57
2014-10-07T00:57:33.111Z,12.62
2014-10-07T00:58:38.099Z,12.54
2014-10-07T00:59:42.787Z,12.54
2014-10-07T01:00:47.493Z,12.52
2014-10-07T01:01:52.183Z,12.52
2014-10-07T01:02:56.888Z,12.55
2014-10-07T01:04:01.578Z,12.67
2014-10-07T01:05:06.268Z,12.7
2014-10-07T01:06:10.972Z,12.36
2014-10-07T01:07:15.662Z,12.5
2014-10-07T01:08:20.649Z,12.72
2014-10-07T01:09:25.338Z,12.66
2014-10-07T01:10:30.325Z,12.65
2014-10-07T01:11:35.030Z,12.64
2014-10-07T01:12:39.720Z,12.84
2014-10-07T01:13:44.706Z,12.66
2014-10-07T01:14:49.395Z,12.72
2014-10-07T01:15:54.101Z,12.69
2014-10-07T01:16:58.790Z,12.66
2014-10-07T01:18:03.776Z,12.6
2014-10-07T01:19:08.466Z,12.72
2014-10-07T01:20:13.171Z,12.77
2014-10-07T01:21:17.861Z,12.68
2014-10-07T01:22:22.566Z,12.68
2014-10-07T01:23:27.272Z,12.74
2014-10-07T01:24:31.274Z,12.7
2014-10-07T01:25:35.979Z,12.7
2014-10-07T01:26:40.667Z,12.72
2014-10-07T01:27:45.655Z,12.75
2014-10-07T01:28:50.360Z,12.72
2014-10-07T01:29:55.049Z,13
2014-10-07T01:30:59.755Z,12.79
2014-10-07T01:32:04.444Z,12.71
2014-10-07T01:33:09.149Z,12.76
2014-10-07T01:34:13.839Z,12.82
2014-10-07T01:35:18.826Z,12.85
2014-10-07T01:36:23.811Z,12.88
2014-10-07T01:37:28.518Z,12.94
2014-10-07T01:38:33.223Z,13
2014-10-07T01:39:37.911Z,13.04
2014-10-07T01:40:42.617Z,13.05
2014-10-07T01:41:47.322Z,13.04
2014-10-07T01:42:52.309Z,13.03
2014-10-07T01:43:57.013Z,13.12
2014-10-07T01:45:01.703Z,13.13
2014-10-07T01:46:06.409Z,13.34
2014-10-07T01:47:11.098Z,13.52
2014-10-07T01:48:15.788Z,13.35
2014-10-07T01:49:20.494Z,13.23
2014-10-07T01:50:25.182Z,13.29
2014-10-07T01:51:30.169Z,13.42
2014-10-07T01:52:34.859Z,13.54
2014-10-07T01:53:38.877Z,14
2014-10-07T01:54:43.565Z,13.93
2014-10-07T01:55:48.256Z,14.16
2014-10-07T01:56:52.944Z,14.31
2014-10-07T01:57:57.650Z,14.25
2014-10-07T01:59:02.340Z,14.17
2014-10-07T02:00:07.028Z,13.81
2014-10-07T02:01:11.734Z,13.48
2014-10-07T02:02:16.424Z,13.37
2014-10-07T02:03:21.113Z,13.32
2014-10-07T02:04:25.819Z,13.5
2014-10-07T02:05:30.509Z,13.44
2014-10-07T02:06:35.198Z,13.38
2014-10-07T02:07:40.200Z,13.51
2014-10-07T02:08:45.187Z,13.54
2014-10-07T02:09:49.891Z,13.49
2014-10-07T02:10:54.878Z,13.53
2014-10-07T02:11:59.568Z,13.38
2014-10-07T02:13:04.256Z,13.46
2014-10-07T02:14:08.963Z,13.44
2014-10-07T02:15:13.652Z,13.54
2014-10-07T02:16:18.638Z,13.46
2014-10-07T02:17:23.344Z,13.5
2014-10-07T02:18:27.346Z,13.6
2014-10-07T02:19:32.035Z,13.65
2014-10-07T02:20:37.037Z,13.61
2014-10-07T02:21:41.727Z,13.68
2014-10-07T02:22:46.417Z,13.6
2014-10-07T02:23:51.402Z,13.6
2014-10-07T02:24:56.109Z,13.57
2014-10-07T02:26:01.095Z,13.65
2014-10-07T02:27:05.783Z,13.65
2014-10-07T02:28:10.771Z,13.93
2014-10-07T02:29:15.476Z,14.2
2014-10-07T02:30:20.181Z,14
2014-10-07T02:31:24.871Z,13.88
2014-10-07T02:32:29.576Z,13.87
2014-10-07T02:33:34.265Z,13.92
2014-10-07T02:34:38.955Z,13.86
2014-10-07T02:35:43.644Z,14.06
2014-10-07T02:36:48.349Z,14.17
2014-10-07T02:37:53.337Z,14.21
2014-10-07T02:38:58.322Z,14.07
2014-10-07T02:40:03.012Z,13.89
2014-10-07T02:41:07.702Z,13.96
2014-10-07T02:42:12.406Z,14.07
2014-10-07T02:43:17.097Z,13.97
2014-10-07T02:44:21.801Z,14.03
2014-10-07T02:45:26.490Z,14.02
2014-10-07T02:46:31.181Z,13.84
2014-10-07T02:47:35.870Z,13.87
2014-10-07T02:48:40.575Z,13.76
2014-10-07T02:49:45.281Z,13.56
2014-10-07T02:50:50.267Z,13.78
2014-10-07T02:51:54.956Z,13.64
2014-10-07T02:52:59.663Z,13.86
2014-10-07T02:54:04.649Z,13.86
2014-10-07T02:55:09.337Z,13.84
2014-10-07T02:56:14.043Z,13.74
2014-10-07T02:57:18.749Z,13.78
2014-10-07T02:58:23.453Z,13.62
2014-10-07T02:59:28.142Z,13.66
2014-10-07T03:00:32.848Z,13.65
2014-10-07T03:01:37.538Z,13.53
2014-10-07T03:02:42.524Z,13.68
2014-10-07T03:03:47.229Z,13.59
2014-10-07T03:04:51.919Z,13.64
2014-10-07T03:05:56.625Z,13.62
2014-10-07T03:07:01.627Z,13.74
2014-10-07T03:08:06.331Z,13.78
2014-10-07T03:09:11.318Z,13.82
2014-10-07T03:10:16.024Z,13.69
2014-10-07T03:11:20.712Z,13.73
2014-10-07T03:12:25.417Z,13.8
2014-10-07T03:13:30.122Z,13.69
2014-10-07T03:14:34.829Z,13.8
2014-10-07T03:15:39.534Z,13.87
2014-10-07T03:16:44.222Z,13.76
2014-10-07T03:17:48.928Z,13.8
2014-10-07T03:18:52.930Z,13.76
2014-10-07T03:19:57.635Z,13.79
2014-10-07T03:21:02.356Z,13.84
2014-10-07T03:22:07.061Z,13.86
2014-10-07T03:23:11.063Z,13.8
2014-10-07T03:24:15.768Z,13.7
2014-10-07T03:25:20.475Z,13.74
2014-10-07T03:26:25.180Z,13.74
2014-10-07T03:27:30.166Z,13.8
2014-10-07T03:28:34.871Z,13.83
2014-10-07T03:29:39.576Z,13.89
2014-10-07T03:30:44.281Z,13.94
2014-10-07T03:31:48.987Z,13.97
2014-10-07T03:32:53.676Z,13.96
2014-10-07T03:33:58.381Z,13.99
2014-10-07T03:35:03.086Z,13.96
2014-10-07T03:36:07.791Z,13.91
2014-10-07T03:37:12.497Z,13.9
2014-10-07T03:38:17.203Z,13.91
2014-10-07T03:39:22.189Z,13.79
2014-10-07T03:40:26.893Z,13.81
2014-10-07T03:41:31.599Z,13.91
2014-10-07T03:42:36.304Z,13.88
2014-10-07T03:43:41.010Z,13.9
2014-10-07T03:44:45.715Z,13.92
2014-10-07T03:45:50.419Z,14
2014-10-07T03:46:55.406Z,13.97
2014-10-07T03:48:00.096Z,13.76
2014-10-07T03:49:05.098Z,13.78
2014-10-07T03:50:09.803Z,13.78
2014-10-07T03:51:14.492Z,13.73
2014-10-07T03:52:19.213Z,13.69
2014-10-07T03:53:23.918Z,13.71
2014-10-07T03:54:28.906Z,13.77
2014-10-07T03:55:33.595Z,13.83
2014-10-07T03:56:38.284Z,13.93
2014-10-07T03:57:42.974Z,13.82
2014-10-07T03:58:47.678Z,13.87
2014-10-07T03:59:52.666Z,13.75
2014-10-07T04:00:57.355Z,13.68
2014-10-07T04:02:02.059Z,13.62
2014-10-07T04:03:06.750Z,13.73
2014-10-07T04:04:11.455Z,13.73
2014-10-07T04:05:16.144Z,13.83
2014-10-07T04:06:21.131Z,13.68
2014-10-07T04:07:25.836Z,13.78
2014-10-07T04:08:30.822Z,13.68
2014-10-07T04:09:35.512Z,13.78
2014-10-07T04:10:40.201Z,13.6
2014-10-07T04:11:44.907Z,13.58
2014-10-07T04:12:49.597Z,13.54
2014-10-07T04:13:54.302Z,13.58
2014-10-07T04:14:59.287Z,13.38
2014-10-07T04:16:03.978Z,13.52
2014-10-07T04:17:08.683Z,13.58
2014-10-07T04:18:13.372Z,13.55
2014-10-07T04:19:18.062Z,13.45
2014-10-07T04:20:23.064Z,13.54
2014-10-07T04:21:27.753Z,13.59
2014-10-07T04:22:32.444Z,13.65
2014-10-07T04:23:37.148Z,13.67
2014-10-07T04:24:41.838Z,13.73
2014-10-07T04:25:46.544Z,13.63
2014-10-07T04:26:51.232Z,13.86
2014-10-07T04:27:55.923Z,13.74
2014-10-07T04:29:00.628Z,13.88
2014-10-07T04:30:05.332Z,13.98
2014-10-07T04:31:10.022Z,13.94
2014-10-07T04:32:14.712Z,13.79
2014-10-07T04:33:19.417Z,13.71
2014-10-07T04:34:24.107Z,13.79
2014-10-07T04:35:28.796Z,13.98
2014-10-07T04:36:33.501Z,14.18
2014-10-07T04:37:38.488Z,14.25
2014-10-07T04:38:43.178Z,14.28
2014-10-07T04:39:48.163Z,14.4
2014-10-07T04:40:52.870Z,14.31
2014-10-07T04:41:57.856Z,14.24
2014-10-07T04:43:02.544Z,14.13
2014-10-07T04:44:07.251Z,14.14
2014-10-07T04:45:11.940Z,14.27
2014-10-07T04:46:16.645Z,14.33
2014-10-07T04:47:21.335Z,14.4
2014-10-07T04:48:26.040Z,14.26
2014-10-07T04:49:30.729Z,14.24
2014-10-07T04:50:35.419Z,14.14
2014-10-07T04:51:40.124Z,14.23
2014-10-07T04:52:44.813Z,14.48
2014-10-07T04:53:49.800Z,14.31
2014-10-07T04:54:54.786Z,14.49
2014-10-07T04:55:59.491Z,14.46
2014-10-07T04:57:04.182Z,14.53
2014-10-07T04:58:08.870Z,14.66
2014-10-07T04:59:13.576Z,14.71
2014-10-07T05:00:18.266Z,14.7
2014-10-07T05:01:22.955Z,14.62
2014-10-07T05:02:27.645Z,14.68
2014-10-07T05:03:32.350Z,14.68
2014-10-07T05:04:37.040Z,14.6
2014-10-07T05:05:41.729Z,14.5
2014-10-07T05:06:46.434Z,14.5
2014-10-07T05:07:51.139Z,14.64
2014-10-07T05:08:55.829Z,14.76
2014-10-07T05:10:00.518Z,14.58
2014-10-07T05:11:05.223Z,14.69
2014-10-07T05:12:09.929Z,14.82
2014-10-07T05:13:14.635Z,14.74
2014-10-07T05:14:19.621Z,14.83
2014-10-07T05:15:24.311Z,14.71
2014-10-07T05:16:29.313Z,14.6
2014-10-07T05:17:34.002Z,14.66
2014-10-07T05:18:38.707Z,14.64
2014-10-07T05:19:43.397Z,14.64
2014-10-07T05:20:48.102Z,14.57
2014-10-07T05:21:52.791Z,14.74
2014-10-07T05:22:57.496Z,14.78
2014-10-07T05:24:02.187Z,14.82
2014-10-07T05:25:07.188Z,14.72
2014-10-07T05:26:11.877Z,14.76
2014-10-07T05:27:16.584Z,14.5
2014-10-07T05:28:21.289Z,14.5
2014-10-07T05:29:25.977Z,14.86
2014-10-07T05:30:30.682Z,14.68
2014-10-07T05:31:35.388Z,14.61
2014-10-07T05:32:40.078Z,14.26
2014-10-07T05:33:44.783Z,14.32
2014-10-07T05:34:49.488Z,14.2
2014-10-07T05:35:54.193Z,14.3
2014-10-07T05:36:58.898Z,14.29
2014-10-07T05:38:03.604Z,14.54
2014-10-07T05:39:08.310Z,14.35
2014-10-07T05:40:12.998Z,14.39
2014-10-07T05:41:17.703Z,14.22
2014-10-07T05:42:22.408Z,14.43
2014-10-07T05:43:27.115Z,14.52
2014-10-07T05:44:31.804Z,14.29
2014-10-07T05:45:36.524Z,14.33
2014-10-07T05:46:41.213Z,14.48
2014-10-07T05:47:45.919Z,14.76
2014-10-07T05:48:50.625Z,14.74
2014-10-07T05:49:55.330Z,14.72
2014-10-07T05:51:00.035Z,14.72
2014-10-07T05:52:05.037Z,14.57
2014-10-07T05:53:09.726Z,14.8
2014-10-07T05:54:14.464Z,14.56
2014-10-07T05:55:19.168Z,14.42
2014-10-07T05:56:23.873Z,14.44
2014-10-07T05:57:28.578Z,14.51
2014-10-07T05:58:33.283Z,14.58
2014-10-07T05:59:38.005Z,14.63
2014-10-07T06:00:42.710Z,14.83
2014-10-07T06:01:47.414Z,14.7
2014-10-07T06:02:52.120Z,14.57
2014-10-07T06:03:56.825Z,14.8
2014-10-07T06:05:01.515Z,14.71
2014-10-07T06:06:06.204Z,14.72
2014-10-07T06:07:10.910Z,14.78
2014-10-07T06:08:15.896Z,14.57
2014-10-07T06:09:20.882Z,14.78
2014-10-07T06:10:25.869Z,14.67
2014-10-07T06:11:30.574Z,14.71
2014-10-07T06:12:35.263Z,14.75
2014-10-07T06:13:39.990Z,14.86
2014-10-07T06:14:44.736Z,14.88
2014-10-07T06:15:49.778Z,14.79
2014-10-07T06:16:54.508Z,15.12
2014-10-07T06:17:59.232Z,15
2014-10-07T06:19:03.951Z,14.7
2014-10-07T06:20:08.952Z,14.97
2014-10-07T06:21:13.657Z,15.03
2014-10-07T06:22:18.377Z,14.92
2014-10-07T06:23:23.075Z,14.82
2014-10-07T06:24:27.786Z,15.03
2014-10-07T06:25:31.793Z,15.14
2014-10-07T06:26:36.503Z,14.99
2014-10-07T06:27:41.494Z,15.15
2014-10-07T06:28:46.187Z,15.1
2014-10-07T06:29:51.192Z,15.32
2014-10-07T06:30:55.882Z,15.32
2014-10-07T06:32:00.574Z,15.25
2014-10-07T06:33:05.280Z,15.38
2014-10-07T06:34:09.970Z,15.39
2014-10-07T06:35:14.676Z,15.29
2014-10-07T06:36:19.367Z,15.54
2014-10-07T06:37:24.056Z,15.5
2014-10-07T06:38:28.762Z,15.51
2014-10-07T06:39:33.749Z,15.62
2014-10-07T06:40:38.438Z,15.54
2014-10-07T06:41:43.145Z,15.38
2014-10-07T06:42:47.835Z,15.61
2014-10-07T06:43:52.539Z,15.74
2014-10-07T06:44:57.229Z,16.22
2014-10-07T06:46:01.935Z,15.72
2014-10-07T06:47:06.920Z,15.96
2014-10-07T06:48:11.626Z,16.04
2014-10-07T06:49:16.316Z,16.1
2014-10-07T06:50:21.004Z,16.01
2014-10-07T06:51:25.710Z,15.98
2014-10-07T06:52:30.400Z,15.85
2014-10-07T06:53:35.105Z,16.08
2014-10-07T06:54:39.826Z,16.1
2014-10-07T06:55:44.531Z,16.01
2014-10-07T06:56:49.517Z,15.95
2014-10-07T06:57:54.222Z,15.96
2014-10-07T06:58:59.210Z,15.96
2014-10-07T07:00:04.211Z,16.09
2014-10-07T07:01:08.900Z,16.12
2014-10-07T07:02:13.888Z,16.13
2014-10-07T07:03:18.593Z,16.13
2014-10-07T07:04:23.297Z,16.21
2014-10-07T07:05:27.987Z,16.33
2014-10-07T07:06:32.693Z,16.64
2014-10-07T07:07:37.382Z,16.38
2014-10-07T07:08:42.087Z,16.56
2014-10-07T07:09:46.792Z,16.6
2014-10-07T07:10:51.482Z,16.62
2014-10-07T07:11:56.484Z,16.58
2014-10-07T07:13:01.189Z,16.8
2014-10-07T07:14:05.878Z,16.9
2014-10-07T07:15:10.584Z,16.71
2014-10-07T07:16:15.290Z,16.87
2014-10-07T07:17:20.025Z,16.86
2014-10-07T07:18:24.731Z,17.04
2014-10-07T07:19:29.451Z,16.95
2014-10-07T07:20:34.437Z,16.93
2014-10-07T07:21:39.143Z,16.96
2014-10-07T07:22:43.864Z,17.23
2014-10-07T07:23:48.851Z,17.44
2014-10-07T07:24:53.853Z,17.69
2014-10-07T07:25:58.559Z,17.57
2014-10-07T07:27:03.263Z,17.62
2014-10-07T07:28:07.952Z,18.19
2014-10-07T07:29:12.657Z,18.33
2014-10-07T07:30:17.659Z,18.58
2014-10-07T07:31:22.366Z,18.32
2014-10-07T07:32:27.071Z,18.12
2014-10-07T07:33:31.790Z,18.06
2014-10-07T07:34:36.497Z,18.09
2014-10-07T07:35:41.483Z,18.25
2014-10-07T07:36:46.485Z,17.93
2014-10-07T07:37:51.190Z,17.88
2014-10-07T07:38:55.895Z,17.94
2014-10-07T07:40:00.897Z,17.92
2014-10-07T07:41:05.602Z,17.88
2014-10-07T07:42:10.323Z,17.86
2014-10-07T07:43:15.309Z,17.91
2014-10-07T07:44:20.030Z,17.8
2014-10-07T07:45:25.017Z,17.8
2014-10-07T07:46:30.020Z,17.87
2014-10-07T07:47:34.725Z,18.02
2014-10-07T07:48:39.429Z,18.14
2014-10-07T07:49:44.134Z,18.2
2014-10-07T07:50:48.840Z,18.15
2014-10-07T07:51:53.530Z,18.18
2014-10-07T07:52:58.235Z,18.15
2014-10-07T07:54:02.924Z,17.92
2014-10-07T07:55:07.629Z,17.82
2014-10-07T07:56:12.319Z,17.93
2014-10-07T07:57:17.025Z,17.83
2014-10-07T07:58:21.729Z,17.88
2014-10-07T07:59:26.419Z,17.67
2014-10-07T08:00:31.125Z,17.83
2014-10-07T08:01:36.111Z,17.83
2014-10-07T08:02:40.816Z,17.92
2014-10-07T08:03:45.506Z,17.76
2014-10-07T08:04:50.210Z,17.7
2014-10-07T08:05:54.899Z,17.9
2014-10-07T08:06:59.605Z,18.01
2014-10-07T08:08:04.295Z,18.07
2014-10-07T08:09:08.984Z,18.17
2014-10-07T08:10:13.986Z,18.05
2014-10-07T08:11:18.676Z,18
2014-10-07T08:12:23.381Z,17.95
2014-10-07T08:13:28.071Z,18.02
2014-10-07T08:14:32.776Z,18.04
2014-10-07T08:15:37.465Z,18.24
2014-10-07T08:16:42.171Z,18.32
2014-10-07T08:17:46.892Z,18.27
2014-10-07T08:18:51.597Z,18.18
2014-10-07T08:19:56.302Z,18.11
2014-10-07T08:21:00.992Z,18.21
2014-10-07T08:22:05.697Z,18.24
2014-10-07T08:23:10.402Z,18.18
2014-10-07T08:24:15.092Z,18.28
2014-10-07T08:25:19.797Z,18.43
2014-10-07T08:26:23.799Z,18.44
2014-10-07T08:27:28.786Z,18.28
2014-10-07T08:28:33.490Z,18.26
2014-10-07T08:29:38.195Z,18.26
2014-10-07T08:30:42.886Z,18.42
2014-10-07T08:31:47.590Z,18.49
2014-10-07T08:32:52.279Z,18.33
2014-10-07T08:33:56.986Z,18.48
2014-10-07T08:35:01.675Z,18.5
2014-10-07T08:36:05.693Z,18.48
2014-10-07T08:37:10.381Z,18.42
2014-10-07T08:38:15.369Z,18.55
2014-10-07T08:39:20.074Z,18.78
2014-10-07T08:40:24.763Z,18.88
2014-10-07T08:41:29.468Z,18.82
2014-10-07T08:42:34.173Z,18.71
2014-10-07T08:43:38.880Z,18.96
2014-10-07T08:44:43.585Z,18.73
2014-10-07T08:45:48.273Z,18.72
2014-10-07T08:46:52.979Z,18.79
2014-10-07T08:47:57.669Z,18.9
2014-10-07T08:49:01.686Z,19.01
2014-10-07T08:50:06.392Z,18.95
2014-10-07T08:51:11.081Z,18.92
2014-10-07T08:52:15.786Z,18.78
2014-10-07T08:53:20.476Z,18.9
2014-10-07T08:54:25.181Z,19.06
2014-10-07T08:55:29.870Z,19.1
2014-10-07T08:56:34.575Z,19.06
2014-10-07T08:57:39.265Z,19.2
2014-10-07T08:58:43.971Z,19.17
2014-10-07T08:59:48.660Z,19.17
2014-10-07T09:00:53.365Z,19.26
2014-10-07T09:01:58.070Z,19.11
2014-10-07T09:03:02.759Z,19.22
2014-10-07T09:04:07.747Z,19.18
2014-10-07T09:05:12.733Z,19.35
2014-10-07T09:06:17.437Z,19.23
2014-10-07T09:07:22.143Z,19.21
2014-10-07T09:08:26.833Z,19.12
2014-10-07T09:09:31.554Z,19.36
2014-10-07T09:10:36.259Z,19.54
2014-10-07T09:11:41.246Z,19.44
2014-10-07T09:12:45.950Z,19.32
2014-10-07T09:13:50.655Z,19.35
2014-10-07T09:14:55.360Z,19.32
2014-10-07T09:16:00.051Z,19.31
2014-10-07T09:17:04.756Z,19.31
2014-10-07T09:18:09.460Z,19.33
2014-10-07T09:19:14.165Z,19.43
2014-10-07T09:20:18.870Z,19.56
2014-10-07T09:21:23.577Z,19.48
2014-10-07T09:22:28.282Z,19.72
2014-10-07T09:23:33.284Z,19.78
2014-10-07T09:24:38.004Z,19.86
2014-10-07T09:25:43.006Z,19.77
2014-10-07T09:26:47.712Z,19.7
2014-10-07T09:27:52.418Z,19.96
2014-10-07T09:28:57.122Z,19.81
2014-10-07T09:30:01.827Z,19.94
2014-10-07T09:31:06.532Z,20.09
2014-10-07T09:32:11.222Z,20.39
2014-10-07T09:33:15.928Z,20.5
2014-10-07T09:34:20.633Z,20.58
2014-10-07T09:35:25.932Z,20.88
2014-10-07T09:36:30.636Z,20.84
2014-10-07T09:37:35.342Z,20.71
2014-10-07T09:38:40.047Z,20.83
2014-10-07T09:39:44.752Z,20.99
2014-10-07T09:40:49.457Z,20.8
2014-10-07T09:41:54.162Z,20.62
2014-10-07T09:42:58.868Z,20.7
2014-10-07T09:44:03.573Z,20.75
2014-10-07T09:45:08.576Z,20.83
2014-10-07T09:46:13.295Z,20.67
2014-10-07T09:47:18.001Z,20.8
2014-10-07T09:48:22.707Z,20.5
2014-10-07T09:49:27.412Z,20.59
2014-10-07T09:50:32.117Z,20.5
2014-10-07T09:51:36.822Z,20.67
2014-10-07T09:52:41.526Z,20.43
2014-10-07T09:53:46.528Z,20.44
2014-10-07T09:54:51.234Z,20.12
2014-10-07T09:55:55.939Z,20.24
2014-10-07T09:57:00.645Z,20.18
2014-10-07T09:58:05.335Z,20.24
2014-10-07T09:59:10.336Z,20.29
2014-10-07T10:00:15.322Z,20.46
2014-10-07T10:01:20.325Z,20.23
2014-10-07T10:02:25.015Z,20.32
2014-10-07T10:03:30.000Z,20.42
2014-10-07T10:04:34.705Z,20.47
2014-10-07T10:05:39.412Z,20.22
2014-10-07T10:06:44.101Z,20.46
2014-10-07T10:07:48.805Z,20.32
2014-10-07T10:08:53.511Z,20.22
2014-10-07T10:09:58.498Z,20.22
2014-10-07T10:11:03.203Z,20.34
2014-10-07T10:12:07.908Z,20.34
2014-10-07T10:13:12.597Z,20.29
2014-10-07T10:14:17.599Z,20.28
2014-10-07T10:15:22.587Z,20.37
2014-10-07T10:16:27.292Z,20.3
2014-10-07T10:17:31.980Z,20.15
2014-10-07T10:18:36.982Z,20.26
2014-10-07T10:19:41.673Z,20.27
2014-10-07T10:20:46.675Z,20.24
2014-10-07T10:21:51.380Z,20.34
2014-10-07T10:22:56.070Z,20.61
2014-10-07T10:24:01.072Z,20.3
2014-10-07T10:25:05.761Z,20.55
2014-10-07T10:26:10.482Z,20.48
2014-10-07T10:27:15.171Z,20.42
2014-10-07T10:28:19.876Z,20.37
2014-10-07T10:29:24.567Z,20.34
2014-10-07T10:30:29.272Z,20.46
2014-10-07T10:31:33.976Z,20.72
2014-10-07T10:32:38.667Z,20.66
2014-10-07T10:33:43.372Z,20.59
2014-10-07T10:34:48.077Z,20.76
2014-10-07T10:35:52.766Z,21.01
2014-10-07T10:36:57.472Z,21.1
2014-10-07T10:38:02.177Z,21.16
2014-10-07T10:39:06.866Z,21.36
2014-10-07T10:40:11.571Z,20.98
2014-10-07T10:41:16.276Z,20.84
2014-10-07T10:42:20.966Z,21.07
2014-10-07T10:43:25.672Z,21.29
2014-10-07T10:44:30.376Z,21.01
2014-10-07T10:45:35.363Z,20.87
2014-10-07T10:46:40.069Z,20.71
2014-10-07T10:47:44.757Z,20.71
2014-10-07T10:48:49.462Z,20.78
2014-10-07T10:49:54.168Z,20.85
2014-10-07T10:50:58.874Z,20.76
2014-10-07T10:52:03.579Z,21.12
2014-10-07T10:53:08.267Z,21.02
2014-10-07T10:54:12.973Z,20.85
2014-10-07T10:55:17.678Z,20.87
2014-10-07T10:56:21.680Z,21.07
2014-10-07T10:57:26.682Z,20.96
2014-10-07T10:58:31.373Z,21.16
2014-10-07T10:59:36.078Z,20.93
2014-10-07T11:00:40.782Z,20.92
2014-10-07T11:01:45.472Z,21.1
2014-10-07T11:02:50.192Z,20.94
2014-10-07T11:03:54.898Z,20.94
2014-10-07T11:04:59.885Z,20.83
2014-10-07T11:06:04.590Z,20.83
2014-10-07T11:07:09.280Z,20.86
2014-10-07T11:08:13.985Z,21
2014-10-07T11:09:18.673Z,20.81
2014-10-07T11:10:23.379Z,20.84
2014-10-07T11:11:28.084Z,20.77
2014-10-07T11:12:33.071Z,20.8
2014-10-07T11:13:37.776Z,20.79
2014-10-07T11:14:42.465Z,20.71
2014-10-07T11:15:47.467Z,20.77
2014-10-07T11:16:52.173Z,20.8
2014-10-07T11:17:56.879Z,20.75
2014-10-07T11:19:01.567Z,20.81
2014-10-07T11:20:06.273Z,20.91
2014-10-07T11:21:10.963Z,20.9
2014-10-07T11:22:15.668Z,20.98
2014-10-07T11:23:20.373Z,20.9
2014-10-07T11:24:25.063Z,21.12
2014-10-07T11:25:29.768Z,21.18
2014-10-07T11:26:34.457Z,21.03
2014-10-07T11:27:39.162Z,21.02
2014-10-07T11:28:43.852Z,20.8
2014-10-07T11:29:48.558Z,20.84
2014-10-07T11:30:53.263Z,20.98
2014-10-07T11:31:58.248Z,20.77
2014-10-07T11:33:02.954Z,20.74
2014-10-07T11:34:07.644Z,20.94
2014-10-07T11:35:12.348Z,20.76
2014-10-07T11:36:17.336Z,20.82
2014-10-07T11:37:22.338Z,20.98
2014-10-07T11:38:27.027Z,20.75
2014-10-07T11:39:31.732Z,20.43
2014-10-07T11:40:36.437Z,20.54
2014-10-07T11:41:41.142Z,20.75
2014-10-07T11:42:45.848Z,20.74
2014-10-07T11:43:50.554Z,20.3
2014-10-07T11:44:55.540Z,20.71
2014-10-07T11:46:00.244Z,20.69
2014-10-07T11:47:04.950Z,20.57
2014-10-07T11:48:09.655Z,20.74
2014-10-07T11:49:14.345Z,20.43
2014-10-07T11:50:19.050Z,20.36
2014-10-07T11:51:23.754Z,20.49
2014-10-07T11:52:28.459Z,20.72
2014-10-07T11:53:33.165Z,20.64
2014-10-07T11:54:37.871Z,20.8
2014-10-07T11:55:42.591Z,20.36
2014-10-07T11:56:47.296Z,20.47
2014-10-07T11:57:52.002Z,20.46
2014-10-07T11:58:56.707Z,20.42
2014-10-07T12:00:01.412Z,20.67
2014-10-07T12:01:06.134Z,20.45
2014-10-07T12:02:10.839Z,20.51
2014-10-07T12:03:15.543Z,20.34
2014-10-07T12:04:20.248Z,20.28
2014-10-07T12:05:24.953Z,20.26
2014-10-07T12:06:29.658Z,20.25
2014-10-07T12:07:34.363Z,20.26
2014-10-07T12:08:39.069Z,20.07
2014-10-07T12:09:43.775Z,20.2
2014-10-07T12:10:48.480Z,20.22
2014-10-07T12:11:53.200Z,20.18
2014-10-07T12:12:57.937Z,20.19
2014-10-07T12:14:02.923Z,20.06
2014-10-07T12:15:07.925Z,20.1
2014-10-07T12:16:12.630Z,19.82
2014-10-07T12:17:17.335Z,19.84
2014-10-07T12:18:22.041Z,19.88
2014-10-07T12:19:26.778Z,19.5
2014-10-07T12:20:31.482Z,19.08
2014-10-07T12:21:36.188Z,19.01
2014-10-07T12:22:40.893Z,18.82
2014-10-07T12:23:45.598Z,18.65
2014-10-07T12:24:50.304Z,18.39
2014-10-07T12:25:55.009Z,18.39
2014-10-07T12:26:59.714Z,18.45
2014-10-07T12:28:04.435Z,18.27
2014-10-07T12:29:09.422Z,18.18
2014-10-07T12:30:14.423Z,18.02
2014-10-07T12:31:19.112Z,18.18
2014-10-07T12:32:23.819Z,18.24
2014-10-07T12:33:28.835Z,18.09
2014-10-07T12:34:33.526Z,18.07
2014-10-07T12:35:38.230Z,17.89
2014-10-07T12:36:42.919Z,17.81
2014-10-07T12:37:47.907Z,17.9
2014-10-07T12:38:52.612Z,18.06
2014-10-07T12:39:57.301Z,18.06
2014-10-07T12:41:02.006Z,17.94
2014-10-07T12:42:06.712Z,17.92
2014-10-07T12:43:11.402Z,18.05
2014-10-07T12:44:16.106Z,18.12
2014-10-07T12:45:20.796Z,18.32
2014-10-07T12:46:25.501Z,18.14
2014-10-07T12:47:30.190Z,18.04
2014-10-07T12:48:34.895Z,18.16
2014-10-07T12:49:39.898Z,17.9
2014-10-07T12:50:44.588Z,17.84
2014-10-07T12:51:49.573Z,17.9
2014-10-07T12:52:54.279Z,17.7
2014-10-07T12:53:58.969Z,17.52
2014-10-07T12:55:03.674Z,17.57
2014-10-07T12:56:08.379Z,17.72
2014-10-07T12:57:13.069Z,17.58
2014-10-07T12:58:17.774Z,17.78
2014-10-07T12:59:22.463Z,17.83
2014-10-07T13:00:27.168Z,17.68
2014-10-07T13:01:31.859Z,17.72
2014-10-07T13:02:36.547Z,17.97
2014-10-07T13:03:41.253Z,17.7
2014-10-07T13:04:45.943Z,17.57
2014-10-07T13:05:50.648Z,17.56
2014-10-07T13:06:55.353Z,17.83
2014-10-07T13:08:00.043Z,17.81
2014-10-07T13:09:04.748Z,17.87
2014-10-07T13:10:09.437Z,17.6
2014-10-07T13:11:14.143Z,17.65
2014-10-07T13:12:18.849Z,17.46
2014-10-07T13:13:23.553Z,17.8
2014-10-07T13:14:28.539Z,17.97
2014-10-07T13:15:33.244Z,18.05
2014-10-07T13:16:38.231Z,18.05
2014-10-07T13:17:42.951Z,18.02
2014-10-07T13:18:47.642Z,18.23
2014-10-07T13:19:52.378Z,18.12
2014-10-07T13:20:57.068Z,18.01
2014-10-07T13:22:01.773Z,18.13
2014-10-07T13:23:06.478Z,18.05
2014-10-07T13:24:11.183Z,17.98
2014-10-07T13:25:15.873Z,17.82
2014-10-07T13:26:20.562Z,17.87
2014-10-07T13:27:25.267Z,17.79
2014-10-07T13:28:29.957Z,17.87
2014-10-07T13:29:34.663Z,17.85
2014-10-07T13:30:39.648Z,17.96
2014-10-07T13:31:44.339Z,18.03
2014-10-07T13:32:49.340Z,18.16
2014-10-07T13:33:54.029Z,18.11
2014-10-07T13:34:58.735Z,17.91
2014-10-07T13:36:03.425Z,17.84
2014-10-07T13:37:08.410Z,17.86
2014-10-07T13:38:13.132Z,17.97
2014-10-07T13:39:17.822Z,17.94
2014-10-07T13:40:22.527Z,17.8
2014-10-07T13:41:27.232Z,17.72
2014-10-07T13:42:31.921Z,17.88
2014-10-07T13:43:36.626Z,18
2014-10-07T13:44:41.317Z,18.17
2014-10-07T13:45:46.318Z,18.12
2014-10-07T13:46:51.007Z,18.22
2014-10-07T13:47:55.713Z,18.3
2014-10-07T13:49:00.419Z,18.39
2014-10-07T13:50:05.123Z,18.38
2014-10-07T13:51:09.812Z,18.42
2014-10-07T13:52:14.815Z,18.52
2014-10-07T13:53:19.520Z,18.44
2014-10-07T13:54:24.226Z,18.2
2014-10-07T13:55:28.931Z,18.34
2014-10-07T13:56:33.636Z,18.17
2014-10-07T13:57:38.341Z,18.21